Time;durP1;ratioP1;P1;durP2;ratioP2;P2;SDS_P1;SDS_P2;PMS_P1;PMS_P2;Temp;Humidity;BMP_temperature;BMP_pressure;BME280_temperature;BME280_humidity;BME280_pressure;Samples;Min_cycle;Max_cycle;Signal;HPM_P1;HPM_P2
2022/11/18 00:02:10;;;;;;;15.77;7.72;;;9.60;99.90;;;;;;4976244;28;20026;-68
2022/11/18 00:04:35;;;;;;;16.17;8.23;;;9.60;99.90;;;;;;4976070;28;20037;-68
2022/11/18 00:07:01;;;;;;;17.05;7.45;;;9.70;99.90;;;;;;4993538;28;20109;-68
2022/11/18 00:09:26;;;;;;;17.23;7.47;;;9.70;99.90;;;;;;4979446;28;20033;-68
2022/11/18 00:14:36;;;;;;;20.23;9.85;;;9.80;99.90;;;;;;4998022;28;20049;-68
2022/11/18 00:17:04;;;;;;;19.92;9.43;;;9.90;99.90;;;;;;4979875;28;20477;-68
2022/11/18 00:19:33;;;;;;;14.25;8.48;;;9.90;99.90;;;;;;4980566;28;20092;-68
2022/11/18 00:21:59;;;;;;;16.63;8.65;;;9.80;99.90;;;;;;4997271;28;20022;-68
2022/11/18 00:24:25;;;;;;;17.77;8.13;;;9.80;99.90;;;;;;4997266;28;20022;-68
2022/11/18 00:26:51;;;;;;;18.55;9.23;;;9.90;99.90;;;;;;4997030;28;20030;-68
2022/11/18 00:29:17;;;;;;;19.05;9.13;;;9.90;99.90;;;;;;4980354;28;20026;-68
2022/11/18 00:31:43;;;;;;;18.30;8.52;;;10.00;99.90;;;;;;4979650;28;20030;-68
2022/11/18 00:34:14;;;;;;;18.85;9.40;;;10.00;99.90;;;;;;4997026;28;20022;-68
2022/11/18 00:36:41;;;;;;;16.87;8.50;;;10.00;99.90;;;;;;4997171;28;20196;-68
2022/11/18 00:39:08;;;;;;;16.63;8.13;;;10.00;99.90;;;;;;4979392;28;20025;-68
2022/11/18 00:44:18;;;;;;;20.13;9.25;;;10.00;99.90;;;;;;4997448;28;20048;-68
2022/11/18 00:46:44;;;;;;;17.55;8.38;;;9.90;99.90;;;;;;4979291;28;20030;-68
2022/11/18 00:49:09;;;;;;;23.83;10.52;;;9.90;99.90;;;;;;4979346;28;20030;-68
2022/11/18 00:51:35;;;;;;;18.15;8.90;;;9.90;99.90;;;;;;4979195;28;20057;-68
2022/11/18 00:54:01;;;;;;;18.08;8.88;;;9.80;99.90;;;;;;4996765;28;20046;-68
2022/11/18 00:56:27;;;;;;;18.98;8.80;;;9.70;99.90;;;;;;4979193;28;20049;-68
2022/11/18 00:58:53;;;;;;;18.10;9.25;;;9.70;99.90;;;;;;4996522;28;20029;-68
2022/11/18 01:01:18;;;;;;;18.10;8.32;;;9.70;99.90;;;;;;4979120;28;20022;-68
2022/11/18 01:03:44;;;;;;;22.40;8.43;;;9.50;99.90;;;;;;4979345;28;20033;-68
2022/11/18 01:06:09;;;;;;;22.33;9.95;;;9.60;99.90;;;;;;4979228;28;20129;-68
2022/11/18 01:08:35;;;;;;;25.70;10.57;;;9.50;99.90;;;;;;4979047;28;20080;-68
2022/11/18 01:13:18;;;;;;;26.02;10.35;;;9.50;99.90;;;;;;4996783;28;20084;-68
2022/11/18 01:13:53;;;;;;;20.40;9.38;;;9.50;99.90;;;;;;4996201;28;20031;-68
2022/11/18 01:16:24;;;;;;;18.02;9.40;;;9.50;99.90;;;;;;4979072;28;20041;-68
2022/11/18 01:18:50;;;;;;;18.08;8.55;;;9.50;99.90;;;;;;4978430;28;20057;-68
2022/11/18 01:21:16;;;;;;;19.88;9.50;;;9.40;99.90;;;;;;4978972;28;20030;-68
2022/11/18 01:23:42;;;;;;;17.95;8.98;;;9.40;99.90;;;;;;4996122;28;20061;-68
2022/11/18 01:26:10;;;;;;;24.52;10.20;;;9.50;99.90;;;;;;4996343;28;20058;-68
2022/11/18 01:28:36;;;;;;;20.65;9.93;;;9.50;99.90;;;;;;4996299;28;20031;-68
2022/11/18 01:31:07;;;;;;;17.00;8.80;;;9.50;99.90;;;;;;4978523;28;20036;-68
2022/11/18 01:33:33;;;;;;;20.95;9.52;;;9.40;99.90;;;;;;4978438;28;20033;-68
2022/11/18 01:35:58;;;;;;;22.70;9.82;;;9.40;99.90;;;;;;4995998;28;20026;-68
2022/11/18 01:38:24;;;;;;;23.08;10.30;;;9.40;99.90;;;;;;4996012;28;20024;-68
2022/11/18 01:40:50;;;;;;;21.08;8.77;;;9.50;99.90;;;;;;4978579;28;20117;-68
2022/11/18 01:43:18;;;;;;;21.23;9.18;;;9.50;99.90;;;;;;4978646;28;20033;-68
2022/11/18 01:45:47;;;;;;;19.73;8.93;;;9.40;99.90;;;;;;4995721;28;20022;-68
2022/11/18 01:48:19;;;;;;;26.65;9.88;;;9.40;99.90;;;;;;4978529;28;20117;-68
2022/11/18 01:51:02;;;;;;;26.23;10.00;;;9.40;99.90;;;;;;4978032;28;20081;-68
2022/11/18 01:53:32;;;;;;;23.08;10.02;;;9.60;99.90;;;;;;4978157;28;20028;-68
2022/11/18 01:56:02;;;;;;;23.08;10.50;;;9.70;99.90;;;;;;4978132;28;20030;-68
2022/11/18 01:58:35;;;;;;;25.67;10.10;;;9.80;99.90;;;;;;4978297;28;20027;-68
2022/11/18 02:01:03;;;;;;;22.70;11.30;;;9.80;99.90;;;;;;4977966;28;20026;-68
2022/11/18 02:03:28;;;;;;;25.83;10.95;;;9.70;99.90;;;;;;4995279;28;20065;-68
2022/11/18 02:05:54;;;;;;;28.80;10.88;;;9.70;99.90;;;;;;4977951;28;20022;-68
2022/11/18 02:08:22;;;;;;;22.80;10.73;;;9.80;99.90;;;;;;4995261;28;20058;-68
2022/11/18 02:10:47;;;;;;;21.23;9.68;;;9.90;99.90;;;;;;4977971;28;20057;-68
2022/11/18 02:13:14;;;;;;;25.85;9.90;;;9.80;99.90;;;;;;4977949;28;20082;-68
2022/11/18 02:15:58;;;;;;;27.52;10.45;;;9.80;99.90;;;;;;4977660;28;20030;-68
2022/11/18 02:18:38;;;;;;;25.80;8.43;;;9.80;99.90;;;;;;4977850;28;20137;-68
2022/11/18 02:21:57;;;;;;;29.30;11.60;;;9.80;99.90;;;;;;4995251;28;20029;-68
2022/11/18 02:24:27;;;;;;;29.35;11.05;;;9.80;99.90;;;;;;4978406;28;20039;-68
2022/11/18 02:27:06;;;;;;;23.17;9.98;;;9.80;99.90;;;;;;4977513;28;20026;-68
2022/11/18 02:29:57;;;;;;;25.02;10.43;;;9.80;99.90;;;;;;4977771;28;20043;-68
2022/11/18 02:32:40;;;;;;;30.90;11.35;;;9.80;99.90;;;;;;4983613;23;20126;-68
2022/11/18 02:35:15;;;;;;;26.80;9.73;;;9.90;99.90;;;;;;4975799;28;20073;-68
2022/11/18 02:37:40;;;;;;;37.00;11.32;;;9.90;99.90;;;;;;4958292;28;20076;-68
2022/11/18 02:40:10;;;;;;;35.15;11.52;;;9.90;99.90;;;;;;4975427;28;20019;-68
2022/11/18 02:42:38;;;;;;;18.85;8.07;;;9.90;99.90;;;;;;4958329;28;20495;-69
2022/11/18 02:45:12;;;;;;;28.23;9.90;;;9.90;99.90;;;;;;4959391;28;20023;-69
2022/11/18 02:47:39;;;;;;;23.20;8.57;;;9.80;99.90;;;;;;4958856;28;20034;-69
2022/11/18 02:50:10;;;;;;;22.83;8.95;;;9.60;99.90;;;;;;4975797;28;20032;-69
2022/11/18 02:52:38;;;;;;;22.23;8.30;;;9.70;99.90;;;;;;4975226;28;20043;-68
2022/11/18 02:55:08;;;;;;;25.38;8.90;;;9.70;99.90;;;;;;4975230;28;20094;-69
2022/11/18 02:57:35;;;;;;;22.02;7.35;;;9.80;99.90;;;;;;4958137;28;20025;-69
2022/11/18 03:00:01;;;;;;;21.60;8.27;;;9.80;99.90;;;;;;4957998;28;20019;-69
2022/11/18 03:02:27;;;;;;;20.33;8.80;;;9.80;99.90;;;;;;4958677;28;20033;-68
2022/11/18 03:04:56;;;;;;;20.52;7.85;;;10.00;99.90;;;;;;4957671;28;20031;-69
2022/11/18 03:07:29;;;;;;;25.92;8.90;;;10.00;99.90;;;;;;4957793;28;20031;-69
2022/11/18 03:09:58;;;;;;;21.52;8.80;;;10.10;99.90;;;;;;4957796;28;20034;-69
2022/11/18 03:12:49;;;;;;;20.92;8.23;;;10.10;99.90;;;;;;4975149;28;20026;-68
2022/11/18 03:15:44;;;;;;;22.63;9.15;;;10.10;99.90;;;;;;4976026;28;20026;-68
2022/11/18 03:18:28;;;;;;;26.95;9.75;;;10.10;99.90;;;;;;4975391;28;20037;-68
2022/11/18 03:21:21;;;;;;;26.55;9.13;;;10.00;99.90;;;;;;4957883;28;20324;-68
2022/11/18 03:23:55;;;;;;;24.50;9.90;;;9.90;99.90;;;;;;4975252;28;20030;-69
2022/11/18 03:26:28;;;;;;;27.50;8.57;;;9.90;99.90;;;;;;4959072;28;20034;-69
2022/11/18 03:29:03;;;;;;;23.23;9.20;;;9.90;99.90;;;;;;4957590;28;20022;-69
2022/11/18 03:31:44;;;;;;;30.63;9.75;;;10.00;99.90;;;;;;4957797;28;20038;-68
2022/11/18 03:34:24;;;;;;;32.30;11.87;;;10.10;99.90;;;;;;4958705;28;20019;-68
2022/11/18 03:36:55;;;;;;;31.58;10.43;;;10.10;99.90;;;;;;4975738;28;20530;-68
2022/11/18 03:39:23;;;;;;;28.00;9.88;;;10.10;99.90;;;;;;4959591;28;20039;-69
2022/11/18 03:42:19;;;;;;;28.42;9.98;;;10.10;99.90;;;;;;4958363;28;20035;-68
2022/11/18 03:44:54;;;;;;;24.38;9.13;;;10.00;99.90;;;;;;4954886;28;20035;-69
2022/11/18 03:47:36;;;;;;;26.15;8.70;;;10.10;99.90;;;;;;4975963;28;20026;-69
2022/11/18 03:50:20;;;;;;;32.97;8.90;;;10.10;99.90;;;;;;4958203;28;20030;-69
2022/11/18 03:52:48;;;;;;;30.52;9.73;;;10.10;99.90;;;;;;4975017;28;20057;-69
2022/11/18 03:55:19;;;;;;;28.83;8.88;;;10.10;99.90;;;;;;4974780;28;20019;-69
2022/11/18 03:57:50;;;;;;;25.35;8.95;;;10.10;99.90;;;;;;4975060;28;20025;-69
2022/11/18 04:00:19;;;;;;;32.78;10.35;;;10.10;99.90;;;;;;4958053;28;20073;-69
2022/11/18 04:02:46;;;;;;;26.17;8.55;;;10.10;99.90;;;;;;4975113;28;20027;-69
2022/11/18 04:05:14;;;;;;;31.45;8.68;;;10.10;99.90;;;;;;4974935;28;20030;-69
2022/11/18 04:07:58;;;;;;;21.00;6.88;;;10.00;99.90;;;;;;4975684;28;20033;-69
2022/11/18 04:10:29;;;;;;;21.15;7.63;;;10.00;99.90;;;;;;4958166;28;20126;-68
2022/11/18 04:12:55;;;;;;;18.40;7.00;;;10.00;99.90;;;;;;4957936;28;20023;-68
2022/11/18 04:15:21;;;;;;;19.50;8.05;;;10.00;99.90;;;;;;4957393;28;20023;-68
2022/11/18 04:17:46;;;;;;;24.48;9.18;;;10.10;99.90;;;;;;4957751;28;20102;-69
2022/11/18 04:20:17;;;;;;;28.30;8.30;;;10.00;99.90;;;;;;4958126;28;20085;-69
2022/11/18 04:22:43;;;;;;;24.73;8.68;;;10.10;99.90;;;;;;4958338;28;20034;-69
2022/11/18 04:25:08;;;;;;;22.45;7.47;;;10.00;99.90;;;;;;4957727;28;20035;-69
2022/11/18 04:27:34;;;;;;;26.52;8.20;;;10.00;99.90;;;;;;4957452;28;20030;-69
2022/11/18 04:29:59;;;;;;;23.08;7.85;;;10.00;99.90;;;;;;4974652;28;20029;-69
2022/11/18 04:32:25;;;;;;;24.27;7.70;;;10.00;99.90;;;;;;4974461;28;20078;-68
2022/11/18 04:34:51;;;;;;;22.13;7.97;;;10.10;99.90;;;;;;4957435;28;20540;-68
2022/11/18 04:37:16;;;;;;;27.42;7.90;;;10.10;99.90;;;;;;4975023;28;20514;-69
2022/11/18 04:39:42;;;;;;;22.13;7.90;;;10.00;99.90;;;;;;4957207;28;20030;-69
2022/11/18 04:42:07;;;;;;;24.38;8.30;;;9.70;99.90;;;;;;4957180;28;20078;-69
2022/11/18 04:44:33;;;;;;;27.80;9.15;;;9.60;99.90;;;;;;4958680;28;20027;-69
2022/11/18 04:47:04;;;;;;;30.65;8.65;;;9.60;99.90;;;;;;4957515;28;20081;-69
2022/11/18 04:49:30;;;;;;;33.40;10.48;;;9.70;99.90;;;;;;4957201;28;20121;-69
2022/11/18 04:51:56;;;;;;;34.88;9.05;;;9.70;99.90;;;;;;4974227;28;20023;-68
2022/11/18 04:54:23;;;;;;;23.85;7.93;;;9.70;99.90;;;;;;4975868;28;20019;-69
2022/11/18 04:56:48;;;;;;;27.85;8.90;;;9.80;99.90;;;;;;4978557;28;20069;-68
2022/11/18 04:59:19;;;;;;;28.02;9.15;;;9.90;99.90;;;;;;4977917;28;20047;-69
2022/11/18 05:01:45;;;;;;;21.10;7.18;;;9.90;99.90;;;;;;4960732;28;20034;-68
2022/11/18 05:04:16;;;;;;;20.95;7.35;;;9.90;99.90;;;;;;4960664;28;20030;-69
2022/11/18 05:06:42;;;;;;;29.58;9.65;;;10.00;99.90;;;;;;4961358;28;20031;-69
2022/11/18 05:09:09;;;;;;;38.97;9.25;;;10.00;99.90;;;;;;4961166;28;20129;-69
2022/11/18 05:14:18;;;;;;;37.08;9.20;;;10.00;99.90;;;;;;4977980;28;20077;-69
2022/11/18 05:16:44;;;;;;;34.83;9.80;;;10.00;99.90;;;;;;4960285;28;20023;-69
2022/11/18 05:19:10;;;;;;;40.65;11.00;;;10.00;99.90;;;;;;4960271;28;20022;-69
2022/11/18 05:21:36;;;;;;;41.00;9.68;;;9.90;99.90;;;;;;4960238;28;20161;-68
2022/11/18 05:24:03;;;;;;;37.85;9.48;;;9.70;99.90;;;;;;4959984;28;20042;-68
2022/11/18 05:26:29;;;;;;;35.20;11.00;;;9.70;99.90;;;;;;4977352;28;20054;-69
2022/11/18 05:28:55;;;;;;;47.75;10.90;;;9.60;99.90;;;;;;4977494;28;20027;-69
2022/11/18 05:31:21;;;;;;;52.88;11.27;;;9.70;99.90;;;;;;4960307;28;20035;-68
2022/11/18 05:33:46;;;;;;;50.63;10.73;;;9.50;99.90;;;;;;4960325;28;20023;-69
2022/11/18 05:36:15;;;;;;;28.13;9.00;;;9.40;99.90;;;;;;4960049;28;20026;-69
2022/11/18 05:38:41;;;;;;;38.33;10.30;;;9.40;99.90;;;;;;4977334;28;20027;-69
2022/11/18 05:41:08;;;;;;;23.88;8.88;;;9.50;99.90;;;;;;4959998;28;20058;-68
2022/11/18 05:43:35;;;;;;;21.90;7.70;;;9.50;99.90;;;;;;4977050;28;20102;-69
2022/11/18 05:46:01;;;;;;;26.45;7.63;;;9.60;99.90;;;;;;4960157;28;20027;-69
2022/11/18 05:48:27;;;;;;;25.48;8.45;;;9.70;99.90;;;;;;4959328;28;20047;-69
2022/11/18 05:50:53;;;;;;;32.80;10.20;;;9.80;99.90;;;;;;4976810;28;20069;-68
2022/11/18 05:53:23;;;;;;;32.08;9.43;;;9.90;99.90;;;;;;4977582;28;20019;-68
2022/11/18 05:56:18;;;;;;;37.38;9.20;;;9.90;99.90;;;;;;4960490;28;20019;-69
2022/11/18 05:58:44;;;;;;;33.03;8.57;;;10.00;99.90;;;;;;4977140;28;20057;-69
2022/11/18 06:01:13;;;;;;;29.23;8.88;;;10.00;99.90;;;;;;4959799;28;20054;-69
2022/11/18 06:03:40;;;;;;;22.73;8.18;;;10.00;99.90;;;;;;4959507;28;20648;-69
2022/11/18 06:06:09;;;;;;;36.88;9.00;;;10.00;99.90;;;;;;4960026;28;20023;-69
2022/11/18 06:08:43;;;;;;;35.13;8.40;;;10.00;99.90;;;;;;4976499;28;20114;-69
2022/11/18 06:11:11;;;;;;;36.15;8.45;;;9.90;99.90;;;;;;4959918;28;20113;-68
2022/11/18 06:13:49;;;;;;;36.30;8.20;;;9.90;99.90;;;;;;4958896;28;20019;-68
2022/11/18 06:16:18;;;;;;;37.97;7.68;;;9.90;99.90;;;;;;4976782;28;20079;-69
2022/11/18 06:18:43;;;;;;;36.38;8.25;;;9.90;99.90;;;;;;4976635;28;20433;-69
2022/11/18 06:21:09;;;;;;;38.40;8.43;;;9.80;99.90;;;;;;4976590;28;20084;-68
2022/11/18 06:23:37;;;;;;;38.35;8.00;;;9.90;99.90;;;;;;4959066;28;20023;-69
2022/11/18 06:26:03;;;;;;;30.35;8.00;;;9.90;99.90;;;;;;4976222;28;20026;-69
2022/11/18 06:28:29;;;;;;;37.15;9.48;;;9.90;99.90;;;;;;4958689;28;20110;-69
2022/11/18 06:30:55;;;;;;;35.30;8.50;;;9.80;99.90;;;;;;4975957;28;20030;-68
2022/11/18 06:33:20;;;;;;;62.75;9.95;;;9.90;99.90;;;;;;4958960;28;20027;-69
2022/11/18 06:35:46;;;;;;;27.48;8.35;;;9.80;99.90;;;;;;4976323;28;20023;-69
2022/11/18 06:38:12;;;;;;;29.02;7.75;;;9.80;99.90;;;;;;4959214;28;20077;-69
2022/11/18 06:40:37;;;;;;;32.13;7.90;;;9.80;99.90;;;;;;4958891;28;20022;-68
2022/11/18 06:48:44;;;;;;;30.08;7.85;;;9.90;99.90;;;;;;4976692;28;20061;-69
2022/11/18 06:51:10;;;;;;;21.73;6.68;;;9.80;99.90;;;;;;4958257;28;20058;-68
2022/11/18 06:53:35;;;;;;;25.23;7.35;;;9.90;99.90;;;;;;4958787;28;20030;-69
2022/11/18 06:56:06;;;;;;;19.17;5.63;;;9.90;99.90;;;;;;4958523;28;20030;-69
2022/11/18 06:58:31;;;;;;;21.13;6.43;;;10.00;99.90;;;;;;4958497;28;20090;-69
2022/11/18 07:00:57;;;;;;;22.38;7.20;;;10.00;99.90;;;;;;4975659;28;20069;-69
2022/11/18 07:03:22;;;;;;;35.13;7.60;;;10.00;99.90;;;;;;4975870;28;20023;-69
2022/11/18 07:05:48;;;;;;;24.58;7.18;;;10.00;99.90;;;;;;4958459;28;20050;-69
2022/11/18 07:08:13;;;;;;;25.15;7.10;;;10.00;99.90;;;;;;4975560;28;20023;-69
2022/11/18 07:10:39;;;;;;;20.63;7.80;;;10.00;99.90;;;;;;4958349;28;20019;-68
2022/11/18 07:13:04;;;;;;;30.45;12.20;;;9.90;99.90;;;;;;4958854;28;20033;-69
2022/11/18 07:15:32;;;;;;;32.05;9.13;;;9.80;99.90;;;;;;4958221;28;20027;-69
2022/11/18 07:17:57;;;;;;;27.92;7.55;;;9.80;99.90;;;;;;4957801;28;20084;-69
2022/11/18 07:20:23;;;;;;;29.00;9.13;;;9.80;99.90;;;;;;4957999;28;20086;-68
2022/11/18 07:22:51;;;;;;;28.40;7.38;;;9.80;99.90;;;;;;4958133;28;20116;-69
2022/11/18 07:25:17;;;;;;;24.73;7.68;;;9.80;99.90;;;;;;4958275;28;20023;-69
2022/11/18 07:27:43;;;;;;;22.50;6.70;;;9.80;99.90;;;;;;4957743;28;20031;-69
2022/11/18 07:30:09;;;;;;;26.80;7.13;;;9.90;99.90;;;;;;4958358;28;20022;-69
2022/11/18 07:32:34;;;;;;;25.55;7.43;;;9.80;99.90;;;;;;4957631;28;20034;-68
2022/11/18 07:35:00;;;;;;;30.08;7.53;;;9.80;99.90;;;;;;4958020;28;20042;-69
2022/11/18 07:37:26;;;;;;;22.35;6.85;;;9.80;99.90;;;;;;4957909;28;20029;-69
2022/11/18 07:39:51;;;;;;;18.00;5.78;;;9.80;99.90;;;;;;4958791;28;20029;-69
2022/11/18 07:42:17;;;;;;;16.98;6.65;;;9.80;99.90;;;;;;4957962;28;20033;-68
2022/11/18 07:44:43;;;;;;;17.58;6.10;;;9.80;99.90;;;;;;4957643;28;20027;-69
2022/11/18 07:47:08;;;;;;;13.77;5.72;;;9.90;99.90;;;;;;4957887;28;20031;-69
2022/11/18 07:49:34;;;;;;;7.95;3.97;;;9.90;99.90;;;;;;4957616;28;20030;-69
2022/11/18 07:51:59;;;;;;;9.48;4.13;;;9.90;99.90;;;;;;4975284;28;20066;-68
2022/11/18 07:54:25;;;;;;;11.40;4.32;;;10.10;99.90;;;;;;4958224;28;20030;-69
2022/11/18 07:56:50;;;;;;;11.63;4.50;;;10.20;99.90;;;;;;4957865;28;20030;-69
2022/11/18 07:59:16;;;;;;;9.32;4.97;;;10.20;99.90;;;;;;4957647;28;20023;-69
2022/11/18 08:01:41;;;;;;;10.60;5.10;;;10.10;99.90;;;;;;4957689;28;20030;-68
2022/11/18 08:04:09;;;;;;;10.25;4.93;;;10.10;99.90;;;;;;4957522;28;20033;-69
2022/11/18 08:06:35;;;;;;;13.85;6.28;;;10.10;99.90;;;;;;4957530;28;20054;-69
2022/11/18 08:09:01;;;;;;;18.90;8.35;;;10.00;99.90;;;;;;4957210;28;20065;-69
2022/11/18 08:11:27;;;;;;;19.52;8.07;;;10.10;99.90;;;;;;4975156;28;20114;-68
2022/11/18 08:13:52;;;;;;;11.60;4.80;;;10.00;99.90;;;;;;4957345;28;20055;-68
2022/11/18 08:16:20;;;;;;;11.13;5.93;;;10.00;99.90;;;;;;4957864;28;20019;-68
2022/11/18 08:18:46;;;;;;;8.77;3.65;;;9.90;99.90;;;;;;4957313;28;20030;-68
2022/11/18 08:21:13;;;;;;;9.90;4.40;;;9.90;99.90;;;;;;4957181;28;20027;-68
2022/11/18 08:23:39;;;;;;;10.50;4.47;;;10.00;99.90;;;;;;4957311;28;20023;-69
2022/11/18 08:26:12;;;;;;;9.98;4.80;;;10.00;99.90;;;;;;4957831;28;20023;-69
2022/11/18 08:28:38;;;;;;;8.40;4.50;;;10.10;99.90;;;;;;4957385;28;20019;-69
2022/11/18 08:31:14;;;;;;;11.38;4.50;;;10.10;99.90;;;;;;5000724;23;20066;-67
2022/11/18 08:33:40;;;;;;;11.65;4.60;;;10.20;99.90;;;;;;4960631;28;20129;-67
2022/11/18 08:36:17;;;;;;;14.70;5.30;;;10.10;99.90;;;;;;4960742;28;20129;-67
2022/11/18 08:38:43;;;;;;;15.00;5.50;;;10.10;99.90;;;;;;4961048;28;20026;-67
2022/11/18 08:41:12;;;;;;;19.05;5.50;;;10.10;99.90;;;;;;4960181;28;20027;-67
2022/11/18 08:43:38;;;;;;;18.10;5.55;;;10.10;99.90;;;;;;4960872;28;20027;-68
2022/11/18 08:46:03;;;;;;;15.85;5.68;;;10.00;99.90;;;;;;4960156;28;20030;-68
2022/11/18 08:48:29;;;;;;;10.35;4.95;;;10.00;99.90;;;;;;4960037;28;20037;-68
2022/11/18 08:50:57;;;;;;;15.73;5.00;;;10.00;99.90;;;;;;4977259;28;20023;-68
2022/11/18 08:53:22;;;;;;;15.90;5.63;;;10.00;99.90;;;;;;4959759;28;20038;-68
2022/11/18 08:55:54;;;;;;;17.35;5.22;;;9.90;99.90;;;;;;4960480;28;20019;-68
2022/11/18 08:58:20;;;;;;;19.25;6.68;;;10.00;99.90;;;;;;4977605;28;20034;-68
2022/11/18 09:00:45;;;;;;;16.08;6.13;;;10.10;99.90;;;;;;4959819;28;20019;-68
2022/11/18 09:03:11;;;;;;;11.90;4.72;;;10.10;99.90;;;;;;4959958;28;20031;-68
2022/11/18 09:05:36;;;;;;;8.18;4.10;;;10.20;99.90;;;;;;4977371;28;20097;-68
2022/11/18 09:08:02;;;;;;;10.18;4.72;;;10.30;99.90;;;;;;4959668;28;20026;-68
2022/11/18 09:10:28;;;;;;;9.27;4.20;;;10.30;99.90;;;;;;4977066;28;20027;-68
2022/11/18 09:12:53;;;;;;;9.88;4.43;;;10.30;99.90;;;;;;4976849;28;20504;-68
2022/11/18 09:15:19;;;;;;;12.25;4.40;;;10.20;99.90;;;;;;4959613;28;20077;-68
2022/11/18 09:17:44;;;;;;;8.15;4.25;;;10.10;99.90;;;;;;4959625;28;20034;-68
2022/11/18 09:20:10;;;;;;;8.20;3.83;;;10.20;99.90;;;;;;4976870;28;20034;-69
2022/11/18 09:22:36;;;;;;;8.75;3.70;;;10.10;99.90;;;;;;4960534;28;20080;-68
2022/11/18 09:25:02;;;;;;;6.63;3.83;;;10.20;99.90;;;;;;4977135;28;20034;-69
2022/11/18 09:27:27;;;;;;;9.90;4.15;;;10.20;99.90;;;;;;4959422;28;20023;-69
2022/11/18 09:29:53;;;;;;;7.18;3.65;;;10.30;99.90;;;;;;4976753;28;20031;-68
2022/11/18 09:32:18;;;;;;;5.88;3.08;;;10.30;99.90;;;;;;4959224;28;20035;-68
2022/11/18 09:34:44;;;;;;;4.18;3.22;;;10.30;99.90;;;;;;4959579;28;20023;-68
2022/11/18 09:37:10;;;;;;;7.40;4.32;;;10.40;99.90;;;;;;4976505;28;20027;-68
2022/11/18 09:39:36;;;;;;;5.38;3.38;;;10.40;99.90;;;;;;4959950;28;20023;-69
2022/11/18 09:42:23;;;;;;;7.55;3.90;;;10.40;99.90;;;;;;4959589;28;20137;-69
2022/11/18 09:45:12;;;;;;;7.22;3.80;;;10.40;99.90;;;;;;4977052;28;20073;-68
2022/11/18 09:47:37;;;;;;;7.25;3.95;;;10.50;99.90;;;;;;4959826;28;20059;-68
2022/11/18 09:50:14;;;;;;;6.55;3.47;;;10.60;99.90;;;;;;4958862;28;20027;-68
2022/11/18 09:53:03;;;;;;;7.63;3.55;;;10.60;99.90;;;;;;4976553;28;20420;-68
2022/11/18 09:55:28;;;;;;;6.38;3.20;;;10.70;99.90;;;;;;4958991;28;20118;-68
2022/11/18 09:57:57;;;;;;;6.78;3.67;;;10.80;99.90;;;;;;4958837;28;20113;-67
2022/11/18 10:00:29;;;;;;;6.95;3.65;;;10.80;99.90;;;;;;4958810;28;20026;-67
2022/11/18 10:03:01;;;;;;;7.10;3.95;;;10.80;99.90;;;;;;4976170;28;20030;-67
2022/11/18 10:05:29;;;;;;;;;;;10.80;99.90;;;;;;4959101;28;20130;-67
2022/11/18 10:08:25;;;;;;;7.22;3.60;;;10.90;99.90;;;;;;4975931;28;19913;-67
2022/11/18 10:11:00;;;;;;;7.97;4.43;;;11.00;99.90;;;;;;4958979;28;20090;-68
2022/11/18 10:13:37;;;;;;;9.65;3.90;;;11.00;99.90;;;;;;4958471;28;20030;-68
2022/11/18 10:16:09;;;;;;;8.05;3.55;;;11.00;99.90;;;;;;4976010;28;20510;-67
2022/11/18 10:19:16;;;;;;;9.13;3.97;;;11.20;99.90;;;;;;4975822;28;20105;-69
2022/11/18 10:21:47;;;;;;;7.82;4.00;;;11.40;99.90;;;;;;4958291;28;20113;-68
2022/11/18 10:24:20;;;;;;;11.00;3.72;;;11.50;99.90;;;;;;4958848;28;20026;-68
2022/11/18 10:26:46;;;;;;;11.13;4.10;;;11.70;99.90;;;;;;4958406;28;20054;-68
2022/11/18 10:29:12;;;;;;;7.55;4.00;;;11.80;99.90;;;;;;4958361;28;20054;-68
2022/11/18 10:31:39;;;;;;;8.75;3.67;;;11.70;99.90;;;;;;4975245;28;20063;-68
2022/11/18 10:34:05;;;;;;;7.30;3.85;;;11.80;99.90;;;;;;4958891;28;20027;-68
2022/11/18 10:36:36;;;;;;;5.07;3.30;;;11.80;99.90;;;;;;4975403;28;20023;-68
2022/11/18 10:39:15;;;;;;;8.10;3.05;;;11.70;99.90;;;;;;4958237;28;20197;-68
2022/11/18 10:41:45;;;;;;;7.25;3.88;;;11.80;99.90;;;;;;4975450;28;20149;-68
2022/11/18 10:44:31;;;;;;;8.23;3.80;;;11.80;99.90;;;;;;4958997;28;20085;-68
2022/11/18 10:47:23;;;;;;;7.70;3.63;;;11.90;99.90;;;;;;4958923;28;20026;-68
2022/11/18 10:49:50;;;;;;;5.88;3.60;;;11.90;99.90;;;;;;4958051;28;20039;-68
2022/11/18 10:52:16;;;;;;;8.38;3.80;;;12.00;99.90;;;;;;4957113;28;20027;-68
2022/11/18 10:54:42;;;;;;;8.15;3.67;;;11.90;99.90;;;;;;4975517;28;20023;-68
2022/11/18 10:57:22;;;;;;;8.57;3.15;;;11.90;99.90;;;;;;4957726;28;20133;-68
2022/11/18 10:59:56;;;;;;;7.47;3.20;;;11.90;99.90;;;;;;4957720;28;20029;-68
2022/11/18 11:02:33;;;;;;;10.35;4.13;;;11.80;99.90;;;;;;4957609;28;20053;-68
2022/11/18 11:05:03;;;;;;;10.52;3.67;;;11.80;99.90;;;;;;4958145;28;20029;-68
2022/11/18 11:07:31;;;;;;;6.50;4.05;;;11.80;99.90;;;;;;4957636;28;20030;-68
2022/11/18 11:10:21;;;;;;;12.48;4.40;;;11.70;99.90;;;;;;4975165;28;20038;-68
2022/11/18 11:13:11;;;;;;;5.15;3.15;;;11.80;99.90;;;;;;4957551;28;20096;-68
2022/11/18 11:15:40;;;;;;;9.07;4.00;;;11.80;99.90;;;;;;4958350;28;20027;-68
2022/11/18 11:18:40;;;;;;;6.25;3.85;;;11.70;99.90;;;;;;4957758;28;20023;-68
2022/11/18 11:21:19;;;;;;;9.52;4.18;;;11.80;99.90;;;;;;4958168;28;20034;-68
2022/11/18 11:23:45;;;;;;;9.20;3.95;;;11.80;99.90;;;;;;4958173;28;20109;-68
2022/11/18 11:26:44;;;;;;;10.75;5.03;;;11.80;99.90;;;;;;4974939;28;20363;-67
2022/11/18 11:29:47;;;;;;;9.35;5.30;;;11.80;99.90;;;;;;4974620;28;20025;-67
2022/11/18 11:32:49;;;;;;;11.75;4.97;;;11.80;99.90;;;;;;4957560;28;20039;-67
2022/11/18 11:35:22;;;;;;;8.30;5.13;;;11.80;99.90;;;;;;4974372;28;20063;-67
2022/11/18 11:38:22;;;;;;;13.13;4.63;;;11.90;99.90;;;;;;4974783;28;20031;-68
2022/11/18 11:41:10;;;;;;;15.25;5.35;;;11.90;99.90;;;;;;4958236;28;20019;-67
2022/11/18 11:43:59;;;;;;;5.90;3.88;;;12.00;99.90;;;;;;4958013;28;20023;-67
2022/11/18 11:47:45;;;;;;;13.25;3.60;;;12.00;99.90;;;;;;4975031;28;20023;-67
2022/11/18 11:50:00;;;;;;;9.35;3.75;;;12.00;99.90;;;;;;4974172;28;20023;-68
2022/11/18 11:52:58;;;;;;;7.63;3.20;;;11.90;99.90;;;;;;4958057;28;20047;-67
2022/11/18 11:55:46;;;;;;;5.88;3.50;;;11.90;99.90;;;;;;4974579;28;20030;-67
2022/11/18 11:58:12;;;;;;;9.13;4.03;;;11.90;99.90;;;;;;4956899;28;20022;-67
2022/11/18 12:00:48;;;;;;;6.38;3.47;;;11.90;99.90;;;;;;4956933;28;20023;-67
2022/11/18 12:03:46;;;;;;;9.00;3.60;;;11.90;99.90;;;;;;4958243;28;20086;-67
2022/11/18 12:06:12;;;;;;;6.20;3.42;;;11.80;99.90;;;;;;4961009;28;20023;-67
2022/11/18 12:08:48;;;;;;;9.23;3.95;;;11.70;99.90;;;;;;4961159;28;20023;-67
2022/11/18 12:11:34;;;;;;;8.80;3.95;;;11.70;99.90;;;;;;4960553;28;20027;-67
2022/11/18 12:14:10;;;;;;;14.45;5.20;;;11.80;99.90;;;;;;4978118;28;20023;-67
2022/11/18 12:16:50;;;;;;;9.35;4.22;;;11.80;99.90;;;;;;4961492;28;20019;-67
2022/11/18 12:19:23;;;;;;;4.43;2.50;;;11.80;99.90;;;;;;4961200;28;20019;-67
2022/11/18 12:21:49;;;;;;;3.95;2.03;;;11.70;99.90;;;;;;4960513;28;20035;-67
2022/11/18 12:24:31;;;;;;;2.90;1.80;;;11.70;99.90;;;;;;4961482;28;20077;-68
2022/11/18 12:26:58;;;;;;;5.20;2.78;;;11.60;99.90;;;;;;4960580;28;20029;-67
2022/11/18 12:29:26;;;;;;;1.80;1.00;;;11.50;99.90;;;;;;4960767;28;20026;-67
2022/11/18 12:31:53;;;;;;;3.30;1.10;;;11.30;99.90;;;;;;4977512;28;20045;-67
2022/11/18 12:34:30;;;;;;;3.30;1.05;;;11.10;99.90;;;;;;4960223;28;20023;-67
2022/11/18 12:37:16;;;;;;;1.13;1.02;;;11.00;99.90;;;;;;4960255;28;20023;-66
2022/11/18 12:39:47;;;;;;;5.00;1.40;;;11.00;99.90;;;;;;4960199;28;20053;-66
2022/11/18 12:45:39;;;;;;;3.50;0.80;;;11.00;99.90;;;;;;4978046;28;20041;-66
2022/11/18 12:48:34;;;;;;;2.55;1.00;;;10.90;99.90;;;;;;4960174;28;20022;-66
2022/11/18 12:51:23;;;;;;;3.08;0.80;;;11.00;99.90;;;;;;4977299;28;20054;-66
2022/11/18 12:53:50;;;;;;;2.05;1.17;;;11.00;99.90;;;;;;4977236;28;20034;-66
2022/11/18 12:56:16;;;;;;;4.97;1.33;;;11.00;99.90;;;;;;4977267;28;20033;-66
2022/11/18 12:58:46;;;;;;;0.98;0.77;;;11.00;99.90;;;;;;4959895;28;20026;-66
2022/11/18 13:01:14;;;;;;;4.13;0.73;;;11.00;99.90;;;;;;4959891;28;20042;-66
2022/11/18 13:03:40;;;;;;;3.83;0.80;;;11.10;99.90;;;;;;4959801;28;20026;-66
2022/11/18 13:06:27;;;;;;;2.88;0.70;;;11.10;99.90;;;;;;4959892;28;20027;-66
2022/11/18 13:09:01;;;;;;;1.42;0.70;;;11.10;99.90;;;;;;4959763;28;20025;-66
2022/11/18 13:11:46;;;;;;;0.75;0.65;;;11.10;99.90;;;;;;4959859;28;20513;-66
2022/11/18 13:20:23;;;;;;;3.05;1.20;;;10.90;99.90;;;;;;4977197;28;20489;-66
2022/11/18 13:25:35;;;;;;;3.47;1.95;;;10.90;99.90;;;;;;4977031;28;20041;-66
2022/11/18 13:28:19;;;;;;;7.10;3.05;;;10.80;99.90;;;;;;4959454;28;20030;-66
2022/11/18 13:30:54;;;;;;;7.45;1.80;;;10.80;99.90;;;;;;4976636;28;20086;-66